Huvudsida
METAR-TAF:

METAR-TAF

Flygplatser :

USC Campus Downtown

Los Angeles, Kalifornien, USA

latitud: 34-01N, longitud: 118-17W, höjd: 56 m

Aktuellt väderrapport

Denna rapport gjordes för 1 timme och 6 minuter sedan, klockan 11:52 UTC
Stilla vind
Temperatur 12°C
Fuktighet 82%
Tryck 1020 hPa
Sikt: 11.3 km
Klar himmel

METAR: KCQT 251152Z AUTO 00000KT 7SM CLR 12/09 A3013 RMK AO2 SLP200 T01220089 10150 20122 55001

Tid: 04:58 (12:58 UTC)


TAF: saknas

Aktuella väderrapporter och prognoser från 4000 flygplatser (METAR- och TAF-rapporter).

De tillgängliga stationerna syns som gula och röda prickar på kartan.

För musen över prickarna för att se namnen på stationerna.

Klicka sedan för att få väderrapporter och prognoser.

För att ändra kartan: Klicka på de gröna knapparna med ett svart kors på för att zooma in; den gröna knappen med ett streck på för att zooma ut; eller på de gröna pilarna för angränsande kartor.


METAR-TAF: